Terminal Aerodrome Forecast
Issued by NWS

Home | Current Version | Previous Version | Graphics & Text | Print | Product List | Glossary Off
Versions: 1 2 3 4 5 6 7 8 9 10 11 12 13 14 15 16 17 18 19 20 21 22 23 24 25 26 27 28 29 30 31

000
FTUS43 KDDC 022134 AAA
TAFGCK
TAF AMD
KGCK 022134Z 0222/0318 VRB15G30KT 5SM TSRA OVC060CB
     FM022300 09013G22KT P6SM VCTS BKN080CB
     FM030200 05008KT P6SM BKN150=

USA.gov is the U.S. government's official web portal to all federal, state and local government web resources and services.